Terminal Aerodrome Forecast
Issued by NWS

Home | Current Version | Previous Version | Text Only | Print | Product List | Glossary On
Versions: 1 2 3 4 5 6 7 8 9 10 11 12
000
FTUS43 KMPX 191139
TAFRNH
TAF
KRNH 191139Z 1912/2012 14006KT 6SM -RA SCT025 BKN050
     FM191500 16012KT P6SM -RA OVC025
     FM192000 26008KT P6SM BKN015
     FM192200 32010KT P6SM BKN025
     FM200200 33011KT P6SM BKN100=

USA.gov is the U.S. government's official web portal to all federal, state and local government web resources and services.